Time;durP1;ratioP1;P1;durP2;ratioP2;P2;SDS_P1;SDS_P2;PMS_P1;PMS_P2;Temp;Humidity;BMP_temperature;BMP_pressure;BME280_temperature;BME280_humidity;BME280_pressure;Samples;Min_cycle;Max_cycle;Signal;HPM_P1;HPM_P2
2023/06/26 00:02:25;;;;;;;28.17;11.50;;;;;;;;;;6160549;28;20050;-55
2023/06/26 00:05:27;;;;;;;23.03;10.00;;;;;;;;;;6164006;28;20046;-53
2023/06/26 00:08:28;;;;;;;22.60;9.88;;;;;;;;;;6169465;28;20065;-52
2023/06/26 00:11:33;;;;;;;24.75;10.73;;;;;;;;;;6161239;28;20055;-50
2023/06/26 00:14:33;;;;;;;25.35;11.30;;;;;;;;;;6165539;28;20072;-51
2023/06/26 00:17:36;;;;;;;26.40;10.77;;;;;;;;;;6166305;28;20617;-53
2023/06/26 00:20:37;;;;;;;29.85;10.75;;;;;;;;;;6164536;28;20522;-51
2023/06/26 00:23:38;;;;;;;29.90;10.95;;;;;;;;;;6165050;28;20061;-50
2023/06/26 00:26:38;;;;;;;23.00;9.73;;;;;;;;;;6165598;28;20073;-50
2023/06/26 00:29:39;;;;;;;26.77;11.43;;;;;;;;;;6164175;28;20066;-54
2023/06/26 00:32:40;;;;;;;26.75;10.68;;;;;;;;;;6161111;28;20082;-53
2023/06/26 00:35:40;;;;;;;26.35;10.63;;;;;;;;;;6164613;28;20550;-51
2023/06/26 00:38:41;;;;;;;24.27;11.13;;;;;;;;;;6166951;28;20493;-50
2023/06/26 00:41:41;;;;;;;25.70;10.57;;;;;;;;;;6163231;28;21121;-54
2023/06/26 00:44:42;;;;;;;24.05;10.10;;;;;;;;;;6162392;28;20609;-51
2023/06/26 00:47:43;;;;;;;22.38;9.00;;;;;;;;;;6170911;28;20046;-53
2023/06/26 00:50:44;;;;;;;23.33;10.25;;;;;;;;;;6169223;28;20047;-55
2023/06/26 00:53:44;;;;;;;24.48;10.48;;;;;;;;;;6169662;28;20402;-53
2023/06/26 00:56:46;;;;;;;30.20;11.65;;;;;;;;;;6171444;28;20059;-53
2023/06/26 00:59:48;;;;;;;26.15;10.35;;;;;;;;;;6171047;28;20046;-53
2023/06/26 01:02:48;;;;;;;24.20;10.13;;;;;;;;;;6167913;28;20129;-52
2023/06/26 01:05:52;;;;;;;29.60;9.95;;;;;;;;;;6174125;28;20405;-52
2023/06/26 01:08:53;;;;;;;21.65;10.10;;;;;;;;;;6171507;28;20138;-53
2023/06/26 01:11:54;;;;;;;31.05;11.02;;;;;;;;;;6177809;28;20478;-51
2023/06/26 01:14:54;;;;;;;25.38;10.52;;;;;;;;;;6170488;28;20046;-50
2023/06/26 01:17:59;;;;;;;24.60;10.13;;;;;;;;;;6173251;28;20526;-51
2023/06/26 01:21:01;;;;;;;25.08;10.70;;;;;;;;;;6173321;28;20054;-54
2023/06/26 01:24:10;;;;;;;28.10;10.90;;;;;;;;;;6174702;28;20065;-54
2023/06/26 01:27:12;;;;;;;22.67;9.90;;;;;;;;;;6178830;28;20135;-51
2023/06/26 01:30:13;;;;;;;26.92;10.60;;;;;;;;;;6171452;28;20773;-55
2023/06/26 01:33:14;;;;;;;25.15;10.18;;;;;;;;;;6169585;28;20046;-53
2023/06/26 01:36:15;;;;;;;24.90;9.90;;;;;;;;;;6170232;28;20070;-53
2023/06/26 01:39:18;;;;;;;21.15;9.80;;;;;;;;;;6174131;28;20069;-54
2023/06/26 01:42:19;;;;;;;28.10;10.48;;;;;;;;;;6175508;28;20490;-53
2023/06/26 01:45:26;;;;;;;26.00;11.07;;;;;;;;;;6175969;28;20448;-52
2023/06/26 01:48:34;;;;;;;25.02;10.30;;;;;;;;;;6175435;28;20186;-54
2023/06/26 01:51:42;;;;;;;23.75;9.93;;;;;;;;;;6175307;28;20050;-54
2023/06/26 01:54:55;;;;;;;28.10;11.23;;;;;;;;;;6175631;28;20046;-54
2023/06/26 01:57:58;;;;;;;22.42;9.98;;;;;;;;;;6174938;28;20506;-52
2023/06/26 02:01:00;;;;;;;23.20;10.43;;;;;;;;;;6176865;28;20061;-53
2023/06/26 02:04:00;;;;;;;24.92;10.68;;;;;;;;;;6175517;28;20056;-56
2023/06/26 02:07:01;;;;;;;22.55;9.70;;;;;;;;;;6174624;28;20058;-55
2023/06/26 02:10:02;;;;;;;23.98;10.00;;;;;;;;;;6179759;28;20137;-54
2023/06/26 02:13:03;;;;;;;24.70;11.23;;;;;;;;;;6193281;28;20490;-53
2023/06/26 02:16:04;;;;;;;25.55;11.23;;;;;;;;;;6178373;28;20054;-50
2023/06/26 02:19:05;;;;;;;28.70;11.52;;;;;;;;;;6179167;28;20038;-56
2023/06/26 02:22:05;;;;;;;25.87;10.60;;;;;;;;;;6192373;28;20158;-53
2023/06/26 02:25:06;;;;;;;24.75;11.25;;;;;;;;;;6179996;28;20301;-52
2023/06/26 02:28:07;;;;;;;21.73;10.45;;;;;;;;;;6176443;28;20700;-54
2023/06/26 02:31:07;;;;;;;26.90;10.70;;;;;;;;;;6177286;28;20053;-51
2023/06/26 02:34:08;;;;;;;22.15;9.98;;;;;;;;;;6173072;28;20129;-51
2023/06/26 02:37:10;;;;;;;23.60;10.65;;;;;;;;;;6173276;28;20406;-54
2023/06/26 02:40:11;;;;;;;;;;;;;;;;;;6176431;28;20043;-53
2023/06/26 02:43:11;;;;;;;20.08;9.65;;;;;;;;;;6173680;28;19937;-53
2023/06/26 02:46:12;;;;;;;21.98;9.80;;;;;;;;;;6175054;28;20530;-52
2023/06/26 02:49:12;;;;;;;27.08;11.30;;;;;;;;;;6174390;28;20050;-53
2023/06/26 02:52:13;;;;;;;27.90;12.10;;;;;;;;;;6173685;28;20046;-54
2023/06/26 02:55:13;;;;;;;23.33;11.95;;;;;;;;;;6174306;28;20096;-50
2023/06/26 02:58:14;;;;;;;23.05;10.38;;;;;;;;;;6174828;28;20093;-54
2023/06/26 03:01:15;;;;;;;24.83;10.98;;;;;;;;;;6174986;28;20054;-54
2023/06/26 03:04:17;;;;;;;26.85;11.05;;;;;;;;;;6173810;28;20081;-53
2023/06/26 03:07:18;;;;;;;25.75;11.02;;;;;;;;;;6172868;28;20397;-53
2023/06/26 03:10:18;;;;;;;25.52;11.60;;;;;;;;;;6175476;28;20039;-55
2023/06/26 03:13:19;;;;;;;24.50;10.68;;;;;;;;;;6173738;28;20053;-54
2023/06/26 03:16:20;;;;;;;25.00;10.90;;;;;;;;;;6173319;28;20501;-52
2023/06/26 03:19:20;;;;;;;24.08;11.20;;;;;;;;;;6173553;28;20039;-55
2023/06/26 03:22:21;;;;;;;24.63;10.02;;;;;;;;;;6183069;28;20054;-53
2023/06/26 03:25:21;;;;;;;27.60;10.40;;;;;;;;;;6177493;28;20058;-52
2023/06/26 03:28:22;;;;;;;25.15;10.95;;;;;;;;;;6175508;28;20058;-60
2023/06/26 03:31:22;;;;;;;24.33;11.27;;;;;;;;;;6174731;28;20470;-58
2023/06/26 03:34:23;;;;;;;25.33;11.13;;;;;;;;;;6174460;28;20039;-57
2023/06/26 03:37:24;;;;;;;26.63;10.85;;;;;;;;;;6174299;28;20264;-60
2023/06/26 03:40:25;;;;;;;23.92;10.85;;;;;;;;;;6174192;28;20447;-58
2023/06/26 03:43:25;;;;;;;27.40;11.65;;;;;;;;;;6174224;28;20108;-61
2023/06/26 03:46:26;;;;;;;26.38;11.27;;;;;;;;;;6174457;28;20046;-57
2023/06/26 03:49:27;;;;;;;35.70;13.00;;;;;;;;;;6180626;28;20050;-57
2023/06/26 03:52:30;;;;;;;25.77;11.27;;;;;;;;;;6174701;28;20034;-55
2023/06/26 03:55:31;;;;;;;26.38;11.57;;;;;;;;;;6170962;28;20054;-54
2023/06/26 03:58:32;;;;;;;29.88;12.25;;;;;;;;;;6171587;28;20500;-54
2023/06/26 04:01:32;;;;;;;31.05;12.75;;;;;;;;;;6173041;28;20046;-53
2023/06/26 04:04:33;;;;;;;23.27;11.75;;;;;;;;;;6170783;28;20038;-55
2023/06/26 04:07:34;;;;;;;28.02;13.00;;;;;;;;;;6174214;28;20046;-56
2023/06/26 04:10:36;;;;;;;29.05;13.10;;;;;;;;;;6171286;28;20049;-55
2023/06/26 04:13:36;;;;;;;28.17;12.75;;;;;;;;;;6170763;28;20178;-55
2023/06/26 04:16:37;;;;;;;29.10;13.32;;;;;;;;;;6173459;28;20062;-55
2023/06/26 04:19:38;;;;;;;30.63;13.88;;;;;;;;;;6172198;28;20513;-53
2023/06/26 04:22:38;;;;;;;30.17;13.40;;;;;;;;;;6175014;28;20081;-54
2023/06/26 04:25:39;;;;;;;28.42;13.60;;;;;;;;;;6172030;28;20413;-50
2023/06/26 04:28:40;;;;;;;32.85;13.48;;;;;;;;;;6173945;28;20050;-52
2023/06/26 04:31:40;;;;;;;30.88;14.25;;;;;;;;;;6175485;28;20045;-57
2023/06/26 04:34:44;;;;;;;33.45;14.13;;;;;;;;;;6173301;28;20498;-56
2023/06/26 04:37:45;;;;;;;36.28;14.95;;;;;;;;;;6185373;28;20185;-53
2023/06/26 04:40:46;;;;;;;35.47;15.88;;;;;;;;;;6180742;28;20137;-53
2023/06/26 04:43:46;;;;;;;34.03;15.23;;;;;;;;;;6181494;28;20042;-55
2023/06/26 04:46:47;;;;;;;32.65;13.93;;;;;;;;;;6180080;28;20478;-54
2023/06/26 04:49:47;;;;;;;31.23;14.98;;;;;;;;;;6182947;28;20324;-53
2023/06/26 04:52:48;;;;;;;26.88;13.50;;;;;;;;;;6181194;28;20201;-61
2023/06/26 04:55:49;;;;;;;27.13;13.87;;;;;;;;;;6182497;28;20057;-53
2023/06/26 04:58:50;;;;;;;25.58;12.57;;;;;;;;;;6188706;28;20149;-55
2023/06/26 05:01:50;;;;;;;26.33;13.70;;;;;;;;;;6190193;28;20050;-55
2023/06/26 05:04:51;;;;;;;27.20;13.18;;;;;;;;;;6173176;28;20058;-56
2023/06/26 05:07:53;;;;;;;31.48;14.18;;;;;;;;;;6172346;28;20055;-53
2023/06/26 05:10:57;;;;;;;26.00;13.60;;;;;;;;;;6179683;28;20053;-56
2023/06/26 05:13:58;;;;;;;29.75;13.52;;;;;;;;;;6171823;28;20045;-57
2023/06/26 05:16:59;;;;;;;29.50;13.75;;;;;;;;;;6171954;28;20046;-60
2023/06/26 05:19:59;;;;;;;29.07;14.87;;;;;;;;;;6178725;28;20038;-58
2023/06/26 05:23:01;;;;;;;29.70;14.40;;;;;;;;;;6177759;28;20081;-60
2023/06/26 05:26:03;;;;;;;29.33;14.95;;;;;;;;;;6176068;28;20050;-56
2023/06/26 05:29:04;;;;;;;29.90;15.25;;;;;;;;;;6176710;28;20231;-53
2023/06/26 05:32:05;;;;;;;32.67;15.13;;;;;;;;;;6178640;28;20167;-55
2023/06/26 05:35:06;;;;;;;31.15;15.77;;;;;;;;;;6190888;28;20533;-53
2023/06/26 05:38:08;;;;;;;28.83;16.10;;;;;;;;;;6177454;28;20057;-56
2023/06/26 05:41:09;;;;;;;33.40;16.17;;;;;;;;;;6180773;28;20042;-58
2023/06/26 05:44:09;;;;;;;33.07;16.10;;;;;;;;;;6176001;28;20475;-56
2023/06/26 05:47:10;;;;;;;39.17;16.93;;;;;;;;;;6177374;28;20061;-56
2023/06/26 05:50:11;;;;;;;32.80;15.97;;;;;;;;;;6176937;28;20034;-55
2023/06/26 05:53:12;;;;;;;43.17;16.42;;;;;;;;;;6174113;28;20513;-56
2023/06/26 05:56:13;;;;;;;34.37;16.57;;;;;;;;;;6181106;28;20042;-58
2023/06/26 05:59:15;;;;;;;34.90;15.90;;;;;;;;;;6192640;28;20133;-56
2023/06/26 06:02:15;;;;;;;31.30;15.38;;;;;;;;;;6175357;28;20050;-56
2023/06/26 06:05:16;;;;;;;29.03;15.80;;;;;;;;;;6175796;28;20038;-55
2023/06/26 06:08:17;;;;;;;36.33;16.83;;;;;;;;;;6176146;28;20511;-58
2023/06/26 06:11:18;;;;;;;36.10;16.67;;;;;;;;;;6173988;28;20053;-57
2023/06/26 06:14:18;;;;;;;39.43;16.20;;;;;;;;;;6175712;28;20413;-61
2023/06/26 06:17:20;;;;;;;37.53;16.80;;;;;;;;;;6175005;28;20069;-60
2023/06/26 06:20:21;;;;;;;32.78;15.10;;;;;;;;;;6176865;28;20042;-57
2023/06/26 06:23:23;;;;;;;32.97;16.07;;;;;;;;;;6176469;28;20417;-61
2023/06/26 06:26:23;;;;;;;31.35;15.57;;;;;;;;;;6171486;28;20042;-60
2023/06/26 06:29:24;;;;;;;30.93;15.40;;;;;;;;;;6176372;28;20058;-59
2023/06/26 06:32:24;;;;;;;31.83;15.20;;;;;;;;;;6175346;28;20125;-60
2023/06/26 06:35:25;;;;;;;36.23;16.20;;;;;;;;;;6174176;28;20054;-58
2023/06/26 06:38:26;;;;;;;29.33;16.10;;;;;;;;;;6173567;28;20046;-58
2023/06/26 06:41:26;;;;;;;34.40;14.97;;;;;;;;;;6176093;28;20201;-59
2023/06/26 06:44:27;;;;;;;33.70;16.47;;;;;;;;;;6174428;28;20405;-62
2023/06/26 06:47:28;;;;;;;33.33;15.70;;;;;;;;;;6175727;28;20498;-61
2023/06/26 06:50:28;;;;;;;29.90;15.83;;;;;;;;;;6176606;28;20050;-55
2023/06/26 06:53:30;;;;;;;32.70;16.77;;;;;;;;;;6174587;28;20163;-61
2023/06/26 06:56:31;;;;;;;31.20;15.63;;;;;;;;;;6175575;28;20405;-57
2023/06/26 06:59:31;;;;;;;32.40;16.35;;;;;;;;;;6177406;28;20431;-61
2023/06/26 07:02:32;;;;;;;30.57;15.50;;;;;;;;;;6176177;28;20050;-61
2023/06/26 07:05:33;;;;;;;32.03;16.53;;;;;;;;;;6173688;28;20050;-60
2023/06/26 07:08:33;;;;;;;31.03;15.93;;;;;;;;;;6175544;28;20057;-61
2023/06/26 07:11:34;;;;;;;30.90;16.53;;;;;;;;;;6175894;28;20109;-61
2023/06/26 07:14:34;;;;;;;28.63;15.73;;;;;;;;;;6190936;28;20069;-62
2023/06/26 07:17:35;;;;;;;28.40;14.73;;;;;;;;;;6185114;28;20751;-60
2023/06/26 07:20:35;;;;;;;31.87;15.17;;;;;;;;;;6174869;28;20497;-60
2023/06/26 07:23:36;;;;;;;32.33;15.80;;;;;;;;;;6174085;28;20322;-62
2023/06/26 07:26:37;;;;;;;31.70;15.67;;;;;;;;;;6172192;28;20065;-62
2023/06/26 07:29:38;;;;;;;27.00;14.63;;;;;;;;;;6175592;28;20129;-61
2023/06/26 07:32:40;;;;;;;28.30;15.30;;;;;;;;;;6177079;28;20241;-59
2023/06/26 07:35:41;;;;;;;30.63;14.73;;;;;;;;;;6172887;28;20156;-62
2023/06/26 07:38:42;;;;;;;30.53;15.00;;;;;;;;;;6175678;28;20054;-62
2023/06/26 07:41:42;;;;;;;28.17;15.07;;;;;;;;;;6174457;28;20420;-61
2023/06/26 07:44:43;;;;;;;27.97;15.13;;;;;;;;;;6175194;28;20054;-60
2023/06/26 07:47:44;;;;;;;24.65;13.70;;;;;;;;;;6174721;28;20061;-62
2023/06/26 07:50:44;;;;;;;32.20;15.63;;;;;;;;;;6174303;28;20229;-60
2023/06/26 07:53:45;;;;;;;31.90;15.17;;;;;;;;;;6173128;28;20482;-57
2023/06/26 07:57:08;;;;;;;26.53;14.10;;;;;;;;;;6174037;28;20050;-59
2023/06/26 08:00:10;;;;;;;30.85;14.20;;;;;;;;;;6174168;28;20138;-57
2023/06/26 08:03:10;;;;;;;28.13;13.75;;;;;;;;;;6173492;28;20054;-58
2023/06/26 08:06:11;;;;;;;29.43;13.93;;;;;;;;;;6171437;28;20085;-60
2023/06/26 08:09:12;;;;;;;26.73;13.70;;;;;;;;;;6175244;28;20653;-59
2023/06/26 08:12:13;;;;;;;31.35;13.90;;;;;;;;;;6180906;28;20501;-57
2023/06/26 08:15:13;;;;;;;26.33;13.40;;;;;;;;;;6187726;28;20117;-54
2023/06/26 08:18:14;;;;;;;27.53;14.43;;;;;;;;;;6173487;28;20160;-60
2023/06/26 08:21:15;;;;;;;27.20;14.10;;;;;;;;;;6174353;28;20419;-60
2023/06/26 08:24:18;;;;;;;22.23;12.63;;;;;;;;;;6172958;28;20061;-56
2023/06/26 08:27:19;;;;;;;22.63;12.63;;;;;;;;;;6172973;28;20046;-60
2023/06/26 08:30:20;;;;;;;26.23;12.20;;;;;;;;;;6174245;28;20051;-60
2023/06/26 08:33:20;;;;;;;21.33;11.33;;;;;;;;;;6173777;28;20394;-59
2023/06/26 08:36:21;;;;;;;20.23;11.20;;;;;;;;;;6173044;28;20468;-58
2023/06/26 08:39:21;;;;;;;28.73;12.53;;;;;;;;;;6174088;28;20047;-60
2023/06/26 08:42:22;;;;;;;28.17;13.37;;;;;;;;;;6173126;28;20042;-59
2023/06/26 08:45:23;;;;;;;30.73;14.63;;;;;;;;;;6173317;28;20038;-57
2023/06/26 08:48:24;;;;;;;24.10;13.05;;;;;;;;;;6172944;28;20545;-58
2023/06/26 08:51:28;;;;;;;28.37;13.03;;;;;;;;;;6174540;28;20054;-58
2023/06/26 08:54:36;;;;;;;24.23;12.07;;;;;;;;;;6174508;28;20121;-57
2023/06/26 08:57:36;;;;;;;24.40;12.88;;;;;;;;;;6172354;28;20548;-59
2023/06/26 09:00:38;;;;;;;26.65;13.30;;;;;;;;;;6173107;28;20633;-56
2023/06/26 09:03:38;;;;;;;24.48;12.27;;;;;;;;;;6170917;28;20042;-61
2023/06/26 09:06:39;;;;;;;27.77;13.38;;;;;;;;;;6172581;28;20516;-62
2023/06/26 09:09:40;;;;;;;27.63;12.87;;;;;;;;;;6171858;28;20113;-58
2023/06/26 09:12:41;;;;;;;34.43;13.70;;;;;;;;;;6174411;28;20078;-62
2023/06/26 09:15:45;;;;;;;27.17;13.13;;;;;;;;;;6173003;28;20300;-61
2023/06/26 09:18:46;;;;;;;27.80;12.90;;;;;;;;;;6173936;28;20137;-57
2023/06/26 09:21:50;;;;;;;25.93;12.73;;;;;;;;;;6171644;28;20521;-56
2023/06/26 09:24:51;;;;;;;29.08;14.05;;;;;;;;;;6168981;28;21565;-58
2023/06/26 09:27:52;;;;;;;21.87;12.50;;;;;;;;;;6180929;28;20065;-60
2023/06/26 09:30:53;;;;;;;26.02;13.50;;;;;;;;;;6173891;28;20529;-60
2023/06/26 09:34:00;;;;;;;27.83;14.23;;;;;;;;;;6170501;28;20051;-59
2023/06/26 09:37:03;;;;;;;28.05;14.07;;;;;;;;;;6167345;28;20132;-62
2023/06/26 09:40:04;;;;;;;26.40;14.43;;;;;;;;;;6170458;28;20103;-61
2023/06/26 09:43:06;;;;;;;24.85;13.82;;;;;;;;;;6173284;28;20070;-58
2023/06/26 09:46:06;;;;;;;27.02;13.65;;;;;;;;;;6173137;28;20487;-61
2023/06/26 09:49:12;;;;;;;28.17;13.23;;;;;;;;;;6171973;28;20038;-60
2023/06/26 09:52:17;;;;;;;26.17;13.75;;;;;;;;;;6172409;28;20600;-61
2023/06/26 09:55:19;;;;;;;25.90;13.70;;;;;;;;;;6171681;28;20482;-61
2023/06/26 09:58:21;;;;;;;27.38;13.85;;;;;;;;;;6170659;28;20069;-62
2023/06/26 10:01:23;;;;;;;26.65;14.15;;;;;;;;;;6173252;28;20138;-59
2023/06/26 10:04:24;;;;;;;26.42;14.38;;;;;;;;;;6174070;28;20043;-62
2023/06/26 10:07:25;;;;;;;25.23;13.47;;;;;;;;;;6174426;28;20058;-57
2023/06/26 10:10:27;;;;;;;25.55;13.30;;;;;;;;;;6178236;28;20583;-61
2023/06/26 10:13:34;;;;;;;29.23;13.88;;;;;;;;;;6177906;28;20505;-61
2023/06/26 10:16:37;;;;;;;28.30;13.95;;;;;;;;;;6180363;28;20054;-60
2023/06/26 10:19:41;;;;;;;27.75;14.07;;;;;;;;;;6174830;28;21848;-61
2023/06/26 10:22:45;;;;;;;31.55;13.50;;;;;;;;;;6175877;28;20064;-61
2023/06/26 10:25:48;;;;;;;24.10;12.93;;;;;;;;;;6175102;28;20449;-60
2023/06/26 10:28:52;;;;;;;24.67;13.25;;;;;;;;;;6173361;28;20042;-62
2023/06/26 10:31:56;;;;;;;26.05;13.95;;;;;;;;;;6172959;28;20073;-61
2023/06/26 10:34:57;;;;;;;26.77;13.18;;;;;;;;;;6174955;28;20064;-62
2023/06/26 10:38:06;;;;;;;26.23;13.90;;;;;;;;;;6174994;28;20040;-60
2023/06/26 10:41:11;;;;;;;24.30;13.13;;;;;;;;;;6169209;28;20394;-60
2023/06/26 10:44:16;;;;;;;24.23;12.95;;;;;;;;;;6173548;28;20839;-57
2023/06/26 10:47:31;;;;;;;24.30;13.00;;;;;;;;;;6184248;28;20059;-59
2023/06/26 10:50:35;;;;;;;25.58;12.65;;;;;;;;;;6173107;28;20141;-62
2023/06/26 10:53:35;;;;;;;24.23;11.77;;;;;;;;;;6169547;28;20042;-60
2023/06/26 10:56:50;;;;;;;23.65;11.85;;;;;;;;;;6169178;28;20058;-62
2023/06/26 11:00:10;;;;;;;21.85;12.38;;;;;;;;;;6168433;28;20050;-61
2023/06/26 11:03:23;;;;;;;26.60;11.73;;;;;;;;;;6166103;28;20496;-60
2023/06/26 11:06:24;;;;;;;22.35;10.75;;;;;;;;;;6169355;28;20048;-61
2023/06/26 11:09:25;;;;;;;25.25;12.75;;;;;;;;;;6169784;28;20064;-60
2023/06/26 11:12:38;;;;;;;24.77;12.50;;;;;;;;;;6168279;28;20043;-59
2023/06/26 11:15:42;;;;;;;22.98;11.57;;;;;;;;;;6167804;28;20066;-59
2023/06/26 11:18:44;;;;;;;19.60;11.90;;;;;;;;;;6166895;28;20117;-60
2023/06/26 11:21:45;;;;;;;25.83;12.73;;;;;;;;;;6166653;28;20060;-59
2023/06/26 11:24:46;;;;;;;26.35;13.02;;;;;;;;;;6163595;28;20407;-62
2023/06/26 11:27:47;;;;;;;22.23;12.05;;;;;;;;;;6167986;28;20608;-58
2023/06/26 11:30:47;;;;;;;24.40;12.30;;;;;;;;;;6167562;28;20232;-60
2023/06/26 11:33:48;;;;;;;21.33;12.20;;;;;;;;;;6164224;28;20039;-62
2023/06/26 11:36:49;;;;;;;24.70;11.80;;;;;;;;;;6167124;28;20050;-62
2023/06/26 11:39:51;;;;;;;23.63;12.57;;;;;;;;;;6169497;28;20144;-61
2023/06/26 11:42:52;;;;;;;25.30;12.57;;;;;;;;;;6164087;28;20316;-62
2023/06/26 11:45:53;;;;;;;23.42;12.48;;;;;;;;;;6163483;28;20054;-56
2023/06/26 11:48:54;;;;;;;19.77;11.33;;;;;;;;;;6164638;28;20107;-62
2023/06/26 11:51:54;;;;;;;23.13;11.43;;;;;;;;;;6165270;28;20557;-58
2023/06/26 11:54:55;;;;;;;22.30;11.43;;;;;;;;;;6161373;28;20042;-61
2023/06/26 11:57:56;;;;;;;21.60;11.80;;;;;;;;;;6164596;28;20047;-58
2023/06/26 12:00:57;;;;;;;19.95;11.02;;;;;;;;;;6165180;28;20129;-62
2023/06/26 12:04:03;;;;;;;21.47;11.37;;;;;;;;;;6165207;28;20069;-61
2023/06/26 12:07:05;;;;;;;20.08;11.35;;;;;;;;;;6162572;28;20124;-61
2023/06/26 12:10:06;;;;;;;25.80;11.57;;;;;;;;;;6168706;28;20046;-62
2023/06/26 12:13:07;;;;;;;22.40;11.85;;;;;;;;;;6165525;28;20453;-61
2023/06/26 12:16:08;;;;;;;24.73;11.95;;;;;;;;;;6163114;28;20055;-61
2023/06/26 12:19:09;;;;;;;24.37;11.43;;;;;;;;;;6165218;28;20114;-61
2023/06/26 12:22:10;;;;;;;23.55;12.32;;;;;;;;;;6167366;28;20061;-61
2023/06/26 12:25:11;;;;;;;23.38;11.45;;;;;;;;;;6162624;28;20053;-62
2023/06/26 12:28:17;;;;;;;21.88;12.02;;;;;;;;;;6162539;28;20050;-62
2023/06/26 12:31:20;;;;;;;22.17;11.63;;;;;;;;;;6164958;28;20050;-61
2023/06/26 12:34:28;;;;;;;19.25;11.35;;;;;;;;;;6164431;28;20053;-61
2023/06/26 12:37:37;;;;;;;23.13;12.38;;;;;;;;;;6160976;28;20054;-61
2023/06/26 12:40:45;;;;;;;22.33;12.10;;;;;;;;;;6165881;28;20050;-62
2023/06/26 12:43:46;;;;;;;22.70;11.80;;;;;;;;;;6164129;28;20541;-62
2023/06/26 12:46:48;;;;;;;;;;;;;;;;;;6166556;28;20070;-61
2023/06/26 12:49:52;;;;;;;;;;;;;;;;;;6169037;28;19961;-60
2023/06/26 12:52:53;;;;;;;23.45;12.25;;;;;;;;;;6163628;28;20503;-61
2023/06/26 12:55:53;;;;;;;21.40;11.87;;;;;;;;;;6162761;28;21707;-62
2023/06/26 12:58:54;;;;;;;21.50;11.52;;;;;;;;;;6164260;28;20081;-59
2023/06/26 13:01:55;;;;;;;22.00;11.80;;;;;;;;;;6169386;28;20525;-60
2023/06/26 13:04:55;;;;;;;25.35;11.80;;;;;;;;;;6161957;28;20054;-58
2023/06/26 13:07:56;;;;;;;22.90;11.90;;;;;;;;;;6163987;28;20046;-61
2023/06/26 13:10:57;;;;;;;21.63;11.50;;;;;;;;;;6168409;28;20042;-57
2023/06/26 13:13:58;;;;;;;22.00;11.77;;;;;;;;;;6164401;28;20040;-62
2023/06/26 13:17:00;;;;;;;19.02;10.68;;;;;;;;;;6165012;28;20046;-57
2023/06/26 13:20:01;;;;;;;20.38;11.32;;;;;;;;;;6167903;28;20240;-60
2023/06/26 13:23:02;;;;;;;20.20;11.52;;;;;;;;;;6163854;28;20553;-58
2023/06/26 13:26:02;;;;;;;23.70;11.13;;;;;;;;;;6164084;28;20102;-61
2023/06/26 13:29:03;;;;;;;24.85;11.82;;;;;;;;;;6166267;28;20121;-62
2023/06/26 13:32:04;;;;;;;18.65;10.85;;;;;;;;;;6168154;28;20505;-62
2023/06/26 13:35:05;;;;;;;;;;;;;;;;;;6166073;28;20514;-62
2023/06/26 13:38:06;;;;;;;22.73;11.43;;;;;;;;;;6168102;28;19984;-60
2023/06/26 13:41:06;;;;;;;21.05;11.57;;;;;;;;;;6169963;28;20525;-62
2023/06/26 13:44:07;;;;;;;21.50;11.73;;;;;;;;;;6167655;28;20042;-62
2023/06/26 13:47:08;;;;;;;22.27;12.25;;;;;;;;;;6168792;28;20591;-63
2023/06/26 13:50:09;;;;;;;21.07;11.63;;;;;;;;;;6170420;28;20046;-61
2023/06/26 13:53:10;;;;;;;22.98;11.63;;;;;;;;;;6170192;28;20077;-62
2023/06/26 13:56:11;;;;;;;19.27;10.87;;;;;;;;;;6171571;28;20481;-63
2023/06/26 13:59:11;;;;;;;23.05;11.65;;;;;;;;;;6169951;28;20054;-60
2023/06/26 14:02:12;;;;;;;22.93;11.47;;;;;;;;;;6171826;28;20050;-62
2023/06/26 14:05:13;;;;;;;18.80;11.30;;;;;;;;;;6169884;28;20644;-63
2023/06/26 14:08:14;;;;;;;19.95;11.07;;;;;;;;;;6166536;28;20057;-60
2023/06/26 14:11:15;;;;;;;23.08;11.27;;;;;;;;;;6172125;28;20630;-62
2023/06/26 14:14:16;;;;;;;18.90;11.00;;;;;;;;;;6167003;28;20081;-62
2023/06/26 14:17:16;;;;;;;19.55;10.80;;;;;;;;;;6166813;28;20047;-61
2023/06/26 14:20:17;;;;;;;22.57;11.20;;;;;;;;;;6167635;28;20047;-63
2023/06/26 14:23:18;;;;;;;21.58;10.80;;;;;;;;;;6164551;28;20085;-60
2023/06/26 14:26:18;;;;;;;23.10;11.20;;;;;;;;;;6167188;28;20051;-62
2023/06/26 14:29:21;;;;;;;20.95;11.20;;;;;;;;;;6169516;28;20571;-62
2023/06/26 14:32:21;;;;;;;21.67;10.88;;;;;;;;;;6170114;28;20627;-62
2023/06/26 14:35:22;;;;;;;20.23;10.63;;;;;;;;;;6166051;28;20058;-62
2023/06/26 14:38:22;;;;;;;26.70;11.30;;;;;;;;;;6168710;28;20050;-62
2023/06/26 14:41:25;;;;;;;20.25;10.73;;;;;;;;;;6168666;28;20051;-60
2023/06/26 14:44:25;;;;;;;19.55;11.43;;;;;;;;;;6166089;28;20047;-62
2023/06/26 14:47:26;;;;;;;21.45;11.60;;;;;;;;;;6165624;28;20051;-61
2023/06/26 14:50:26;;;;;;;20.07;10.23;;;;;;;;;;6171103;28;20050;-62
2023/06/26 14:53:27;;;;;;;20.50;10.70;;;;;;;;;;6164907;28;20292;-62
2023/06/26 14:56:27;;;;;;;20.48;10.63;;;;;;;;;;6167434;28;20142;-61
2023/06/26 14:59:28;;;;;;;20.63;10.25;;;;;;;;;;6169171;28;20198;-60
2023/06/26 15:02:29;;;;;;;21.27;11.23;;;;;;;;;;6168031;28;20100;-62
2023/06/26 15:05:29;;;;;;;21.27;11.60;;;;;;;;;;6161861;28;20047;-60
2023/06/26 15:08:30;;;;;;;20.83;10.75;;;;;;;;;;6173928;28;20039;-62
2023/06/26 15:11:31;;;;;;;23.05;10.98;;;;;;;;;;6175727;28;20141;-60
2023/06/26 15:14:31;;;;;;;20.35;11.07;;;;;;;;;;6168432;28;20465;-58
2023/06/26 15:17:32;;;;;;;18.52;10.73;;;;;;;;;;6176033;28;20403;-59
2023/06/26 15:20:33;;;;;;;20.43;12.43;;;;;;;;;;6172972;28;20050;-62
2023/06/26 15:23:34;;;;;;;20.38;11.68;;;;;;;;;;6170461;28;20527;-61
2023/06/26 15:26:36;;;;;;;;;;;;;;;;;;6169935;28;20050;-62
2023/06/26 15:29:37;;;;;;;19.58;10.25;;;;;;;;;;6174163;28;19933;-60
2023/06/26 15:32:37;;;;;;;19.45;10.88;;;;;;;;;;6176516;28;20109;-61
2023/06/26 15:35:38;;;;;;;19.38;11.25;;;;;;;;;;6164695;28;20081;-63
2023/06/26 15:38:39;;;;;;;17.85;10.23;;;;;;;;;;6171444;28;20598;-60
2023/06/26 15:41:40;;;;;;;19.70;10.35;;;;;;;;;;6176991;28;20046;-61
2023/06/26 15:44:40;;;;;;;21.42;10.95;;;;;;;;;;6168401;28;20328;-62
2023/06/26 15:47:41;;;;;;;18.90;10.18;;;;;;;;;;6165413;28;20168;-62
2023/06/26 15:50:42;;;;;;;20.58;10.45;;;;;;;;;;6169650;28;20058;-62
2023/06/26 15:53:43;;;;;;;19.20;10.10;;;;;;;;;;6166639;28;20063;-60
2023/06/26 15:56:43;;;;;;;18.25;10.15;;;;;;;;;;6168003;28;20050;-61
2023/06/26 15:59:44;;;;;;;19.80;9.88;;;;;;;;;;6171396;28;20417;-62
2023/06/26 16:02:44;;;;;;;19.73;10.45;;;;;;;;;;6169700;28;20525;-61
2023/06/26 16:05:45;;;;;;;16.20;9.25;;;;;;;;;;6168086;28;20074;-61
2023/06/26 16:08:47;;;;;;;17.03;10.30;;;;;;;;;;6170476;28;20058;-62
2023/06/26 16:11:48;;;;;;;19.55;10.32;;;;;;;;;;6175096;28;20323;-60
2023/06/26 16:14:49;;;;;;;19.05;10.68;;;;;;;;;;6168049;28;20394;-60
2023/06/26 16:17:49;;;;;;;19.70;11.18;;;;;;;;;;6167944;28;20042;-61
2023/06/26 16:20:50;;;;;;;29.27;12.53;;;;;;;;;;6169549;28;20054;-60
2023/06/26 16:23:50;;;;;;;24.52;11.73;;;;;;;;;;6167574;28;20333;-62
2023/06/26 16:26:51;;;;;;;20.38;11.57;;;;;;;;;;6190358;28;20042;-62
2023/06/26 16:29:52;;;;;;;20.73;12.52;;;;;;;;;;6169403;28;20068;-63
2023/06/26 16:32:53;;;;;;;23.85;12.50;;;;;;;;;;6168421;28;20069;-59
2023/06/26 16:35:54;;;;;;;21.10;12.27;;;;;;;;;;6169244;28;20050;-61
2023/06/26 16:38:54;;;;;;;23.02;11.93;;;;;;;;;;6168429;28;20466;-60
2023/06/26 16:41:55;;;;;;;22.92;11.63;;;;;;;;;;6169613;28;20520;-59
2023/06/26 16:44:56;;;;;;;22.42;12.30;;;;;;;;;;6164367;28;20065;-61
2023/06/26 16:47:57;;;;;;;21.15;12.20;;;;;;;;;;6168553;28;20050;-61
2023/06/26 16:50:57;;;;;;;26.00;12.68;;;;;;;;;;6168616;28;20403;-61
2023/06/26 16:53:58;;;;;;;26.90;12.65;;;;;;;;;;6168395;28;20105;-62
2023/06/26 16:56:59;;;;;;;24.35;11.90;;;;;;;;;;6166923;28;20434;-61
2023/06/26 16:59:59;;;;;;;;;;;;;;;;;;6175615;28;20050;-61
2023/06/26 17:03:00;;;;;;;24.87;12.60;;;;;;;;;;6169108;28;19937;-60
2023/06/26 17:06:01;;;;;;;;;;;;;;;;;;6169388;28;20046;-61
2023/06/26 17:09:01;;;;;;;21.60;12.80;;;;;;;;;;6167516;28;20225;-59
2023/06/26 17:12:03;;;;;;;23.08;12.68;;;;;;;;;;6168658;28;20042;-61
2023/06/26 17:15:04;;;;;;;21.85;13.10;;;;;;;;;;6166651;28;20042;-61
2023/06/26 17:18:05;;;;;;;20.52;12.23;;;;;;;;;;6171811;28;20097;-60
2023/06/26 17:21:05;;;;;;;23.30;11.95;;;;;;;;;;6173941;28;20043;-62
2023/06/26 17:24:06;;;;;;;22.98;12.20;;;;;;;;;;6170472;28;20055;-59
2023/06/26 17:27:09;;;;;;;32.55;12.45;;;;;;;;;;6168206;28;20051;-60
2023/06/26 17:30:10;;;;;;;21.90;11.05;;;;;;;;;;6169147;28;20089;-62
2023/06/26 17:33:11;;;;;;;19.20;11.57;;;;;;;;;;6167406;28;20062;-61
2023/06/26 17:36:11;;;;;;;21.50;12.52;;;;;;;;;;6167260;28;20137;-60
2023/06/26 17:39:12;;;;;;;22.02;11.98;;;;;;;;;;6175934;28;20150;-63
2023/06/26 17:42:12;;;;;;;21.85;12.13;;;;;;;;;;6176866;28;20050;-55